Terminal Aerodrome Forecast
Issued by NWS

Home | Current Version | Previous Version | Text Only | Print | Product List | Glossary On
Versions: 1 2 3 4 5 6 7 8 9 10 11 12 13 14 15 16 17 18 19 20 21 22 23 24 25 26 27 28 29 30 31 32 33 34 35 36 37 38 39
000
FTUS43 KDTX 261511 AAA
TAFPTK
TAF AMD
KPTK 261511Z 2615/2712 12008KT 5SM BR BKN009 OVC060
     FM261600 14010KT 3SM -RA BR SCT012 OVC025
      TEMPO 2617/2619 SCT025 OVC080
     FM262200 16010KT 5SM -SHRA BKN015 OVC025
     FM270100 16008KT 3SM -SHRA BR OVC012
     FM270500 21008KT 5SM BR BKN010 OVC030=

USA.gov is the U.S. government's official web portal to all federal, state and local government web resources and services.